sensor_id;sensor_type;location;lat;lon;timestamp;pressure;altitude;pressure_sealevel;temperature;humidity
23016;BME280;11674;52.428;13.584;2023-01-19T00:04:33;100033.09;;;0.48;77.24
23016;BME280;11674;52.428;13.584;2023-01-19T00:09:40;100023.22;;;0.47;77.23
23016;BME280;11674;52.428;13.584;2023-01-19T00:14:47;100033.78;;;0.43;77.14
23016;BME280;11674;52.428;13.584;2023-01-19T00:19:54;100036.19;;;0.40;76.99
23016;BME280;11674;52.428;13.584;2023-01-19T00:25:01;100041.53;;;0.35;77.15
23016;BME280;11674;52.428;13.584;2023-01-19T00:30:08;100058.28;;;0.27;77.30
23016;BME280;11674;52.428;13.584;2023-01-19T00:35:16;100061.72;;;0.22;77.43
23016;BME280;11674;52.428;13.584;2023-01-19T00:40:23;100076.19;;;0.23;77.53
23016;BME280;11674;52.428;13.584;2023-01-19T00:45:30;100074.53;;;0.22;77.50
23016;BME280;11674;52.428;13.584;2023-01-19T00:50:39;100079.16;;;0.21;77.39
23016;BME280;11674;52.428;13.584;2023-01-19T00:55:46;100084.03;;;0.19;77.35
23016;BME280;11674;52.428;13.584;2023-01-19T01:00:53;100089.72;;;0.18;77.39
23016;BME280;11674;52.428;13.584;2023-01-19T01:06:00;100093.75;;;0.15;77.45
23016;BME280;11674;52.428;13.584;2023-01-19T01:11:07;100094.47;;;0.11;77.29
23016;BME280;11674;52.428;13.584;2023-01-19T01:16:14;100092.44;;;0.06;77.31
23016;BME280;11674;52.428;13.584;2023-01-19T01:21:22;100094.34;;;0.06;77.53
23016;BME280;11674;52.428;13.584;2023-01-19T01:26:29;100104.88;;;0.02;77.55
23016;BME280;11674;52.428;13.584;2023-01-19T01:31:36;100097.19;;;-0.01;77.48
23016;BME280;11674;52.428;13.584;2023-01-19T01:36:43;100100.16;;;-0.02;77.74
23016;BME280;11674;52.428;13.584;2023-01-19T01:41:50;100104.53;;;-0.01;77.68
23016;BME280;11674;52.428;13.584;2023-01-19T01:46:57;100097.19;;;-0.01;77.50
23016;BME280;11674;52.428;13.584;2023-01-19T01:52:04;100096.63;;;-0.03;77.47
23016;BME280;11674;52.428;13.584;2023-01-19T01:57:11;100094.59;;;-0.07;77.30
23016;BME280;11674;52.428;13.584;2023-01-19T02:02:23;100094.25;;;-0.11;77.51
23016;BME280;11674;52.428;13.584;2023-01-19T02:07:51;100090.59;;;-0.16;77.24
23016;BME280;11674;52.428;13.584;2023-01-19T02:13:01;100101.94;;;-0.19;77.27
23016;BME280;11674;52.428;13.584;2023-01-19T02:18:09;100110.13;;;-0.19;77.34
23016;BME280;11674;52.428;13.584;2023-01-19T02:23:26;100103.03;;;-0.20;77.25
23016;BME280;11674;52.428;13.584;2023-01-19T02:28:41;100101.59;;;-0.22;77.21
23016;BME280;11674;52.428;13.584;2023-01-19T02:33:50;100107.28;;;-0.24;77.32
23016;BME280;11674;52.428;13.584;2023-01-19T02:38:57;100102.56;;;-0.28;77.24
23016;BME280;11674;52.428;13.584;2023-01-19T02:44:07;100109.53;;;-0.32;77.22
23016;BME280;11674;52.428;13.584;2023-01-19T02:49:15;100102.66;;;-0.35;76.94
23016;BME280;11674;52.428;13.584;2023-01-19T03:10:44;100098.38;;;-0.54;77.14
23016;BME280;11674;52.428;13.584;2023-01-19T03:21:09;100102.66;;;-0.47;77.39
23016;BME280;11674;52.428;13.584;2023-01-19T03:26:20;100101.56;;;-0.46;77.25
23016;BME280;11674;52.428;13.584;2023-01-19T03:31:31;100106.22;;;-0.46;77.18
23016;BME280;11674;52.428;13.584;2023-01-19T03:36:40;100117.09;;;-0.46;77.13
23016;BME280;11674;52.428;13.584;2023-01-19T03:41:51;100107.41;;;-0.42;77.23
23016;BME280;11674;52.428;13.584;2023-01-19T03:47:10;100103.72;;;-0.47;77.13
23016;BME280;11674;52.428;13.584;2023-01-19T03:52:17;100103.81;;;-0.54;77.19
23016;BME280;11674;52.428;13.584;2023-01-19T03:57:31;100113.78;;;-0.59;77.20
23016;BME280;11674;52.428;13.584;2023-01-19T04:02:38;100122.88;;;-0.65;77.18
23016;BME280;11674;52.428;13.584;2023-01-19T04:07:47;100122.25;;;-0.68;77.10
23016;BME280;11674;52.428;13.584;2023-01-19T04:12:59;100137.16;;;-0.70;77.15
23016;BME280;11674;52.428;13.584;2023-01-19T04:18:06;100135.50;;;-0.71;77.24
23016;BME280;11674;52.428;13.584;2023-01-19T04:23:29;100136.81;;;-0.73;77.33
23016;BME280;11674;52.428;13.584;2023-01-19T04:28:36;100140.00;;;-0.76;77.15
23016;BME280;11674;52.428;13.584;2023-01-19T04:33:43;100139.16;;;-0.77;77.18
23016;BME280;11674;52.428;13.584;2023-01-19T04:38:50;100146.97;;;-0.80;77.14
23016;BME280;11674;52.428;13.584;2023-01-19T04:43:57;100141.63;;;-0.87;76.88
23016;BME280;11674;52.428;13.584;2023-01-19T04:49:04;100140.91;;;-0.94;76.94
23016;BME280;11674;52.428;13.584;2023-01-19T04:54:11;100133.06;;;-1.02;76.76
23016;BME280;11674;52.428;13.584;2023-01-19T04:59:18;100140.25;;;-1.07;76.82
23016;BME280;11674;52.428;13.584;2023-01-19T05:04:25;100132.81;;;-1.12;76.89
23016;BME280;11674;52.428;13.584;2023-01-19T05:09:32;100144.34;;;-1.16;77.02
23016;BME280;11674;52.428;13.584;2023-01-19T05:14:39;100142.34;;;-1.21;76.82
23016;BME280;11674;52.428;13.584;2023-01-19T05:19:46;100137.56;;;-1.25;76.90
23016;BME280;11674;52.428;13.584;2023-01-19T05:24:53;100145.97;;;-1.27;76.80
23016;BME280;11674;52.428;13.584;2023-01-19T05:30:00;100149.38;;;-1.31;76.96
23016;BME280;11674;52.428;13.584;2023-01-19T05:35:07;100149.00;;;-1.35;76.82
23016;BME280;11674;52.428;13.584;2023-01-19T05:40:14;100163.66;;;-1.36;76.89
23016;BME280;11674;52.428;13.584;2023-01-19T05:45:21;100161.38;;;-1.39;77.02
23016;BME280;11674;52.428;13.584;2023-01-19T05:50:28;100161.84;;;-1.42;76.99
23016;BME280;11674;52.428;13.584;2023-01-19T05:55:35;100170.00;;;-1.42;77.00
23016;BME280;11674;52.428;13.584;2023-01-19T06:00:42;100172.72;;;-1.42;77.10
23016;BME280;11674;52.428;13.584;2023-01-19T06:05:49;100174.97;;;-1.39;77.10
23016;BME280;11674;52.428;13.584;2023-01-19T06:10:56;100184.56;;;-1.36;77.11
23016;BME280;11674;52.428;13.584;2023-01-19T06:16:03;100170.97;;;-1.36;76.87
23016;BME280;11674;52.428;13.584;2023-01-19T06:21:10;100172.88;;;-1.37;77.12
23016;BME280;11674;52.428;13.584;2023-01-19T06:26:17;100169.53;;;-1.39;76.98
23016;BME280;11674;52.428;13.584;2023-01-19T06:31:24;100176.66;;;-1.38;76.98
23016;BME280;11674;52.428;13.584;2023-01-19T06:36:31;100181.03;;;-1.37;76.95
23016;BME280;11674;52.428;13.584;2023-01-19T06:41:38;100194.41;;;-1.35;76.96
23016;BME280;11674;52.428;13.584;2023-01-19T06:46:45;100183.75;;;-1.37;77.00
23016;BME280;11674;52.428;13.584;2023-01-19T06:51:52;100186.91;;;-1.40;76.85
23016;BME280;11674;52.428;13.584;2023-01-19T06:56:59;100198.47;;;-1.44;76.79
23016;BME280;11674;52.428;13.584;2023-01-19T07:02:06;100204.34;;;-1.47;76.85
23016;BME280;11674;52.428;13.584;2023-01-19T07:07:15;100204.34;;;-1.47;76.96
23016;BME280;11674;52.428;13.584;2023-01-19T07:12:22;100207.34;;;-1.49;77.49
23016;BME280;11674;52.428;13.584;2023-01-19T07:17:29;100212.75;;;-1.49;77.11
23016;BME280;11674;52.428;13.584;2023-01-19T07:22:36;100217.56;;;-1.51;76.87
23016;BME280;11674;52.428;13.584;2023-01-19T07:27:43;100218.84;;;-1.53;76.72
23016;BME280;11674;52.428;13.584;2023-01-19T07:32:50;100235.38;;;-1.55;76.71
23016;BME280;11674;52.428;13.584;2023-01-19T07:37:57;100223.47;;;-1.54;76.84
23016;BME280;11674;52.428;13.584;2023-01-19T07:43:04;100225.06;;;-1.46;77.01
23016;BME280;11674;52.428;13.584;2023-01-19T07:48:11;100228.53;;;-1.39;77.04
23016;BME280;11674;52.428;13.584;2023-01-19T07:53:19;100231.19;;;-1.33;77.09
23016;BME280;11674;52.428;13.584;2023-01-19T07:58:26;100241.81;;;-1.31;76.78
23016;BME280;11674;52.428;13.584;2023-01-19T08:03:33;100252.47;;;-1.30;76.98
23016;BME280;11674;52.428;13.584;2023-01-19T08:08:40;100243.88;;;-1.27;77.04
23016;BME280;11674;52.428;13.584;2023-01-19T08:13:47;100249.47;;;-1.22;77.11
23016;BME280;11674;52.428;13.584;2023-01-19T08:18:54;100258.38;;;-1.15;77.31
23016;BME280;11674;52.428;13.584;2023-01-19T08:24:01;100263.50;;;-1.07;77.30
23016;BME280;11674;52.428;13.584;2023-01-19T08:29:08;100260.69;;;-1.00;77.45
23016;BME280;11674;52.428;13.584;2023-01-19T08:34:15;100260.41;;;-0.92;77.31
23016;BME280;11674;52.428;13.584;2023-01-19T08:39:22;100266.13;;;-0.82;77.65
23016;BME280;11674;52.428;13.584;2023-01-19T08:44:29;100276.47;;;-0.73;77.65
23016;BME280;11674;52.428;13.584;2023-01-19T08:49:36;100261.22;;;-0.63;77.72
23016;BME280;11674;52.428;13.584;2023-01-19T08:54:43;100266.59;;;-0.56;77.59
23016;BME280;11674;52.428;13.584;2023-01-19T08:59:50;100276.09;;;-0.47;77.88
23016;BME280;11674;52.428;13.584;2023-01-19T09:04:57;100278.72;;;-0.41;77.99
23016;BME280;11674;52.428;13.584;2023-01-19T09:10:04;100281.13;;;-0.32;77.87
23016;BME280;11674;52.428;13.584;2023-01-19T09:15:12;100291.94;;;-0.26;78.11
23016;BME280;11674;52.428;13.584;2023-01-19T09:20:19;100291.00;;;-0.20;78.05
23016;BME280;11674;52.428;13.584;2023-01-19T09:25:26;100289.97;;;-0.08;78.17
23016;BME280;11674;52.428;13.584;2023-01-19T09:30:34;100287.88;;;0.06;78.13
23016;BME280;11674;52.428;13.584;2023-01-19T09:35:43;100293.78;;;0.14;78.08
23016;BME280;11674;52.428;13.584;2023-01-19T09:40:54;100287.97;;;0.22;78.16
23016;BME280;11674;52.428;13.584;2023-01-19T09:46:18;100296.91;;;0.41;78.28
23016;BME280;11674;52.428;13.584;2023-01-19T09:51:28;100290.50;;;0.47;78.31
23016;BME280;11674;52.428;13.584;2023-01-19T09:56:38;100288.63;;;0.59;78.39
23016;BME280;11674;52.428;13.584;2023-01-19T10:28:29;100267.53;;;1.45;78.84
23016;BME280;11674;52.428;13.584;2023-01-19T10:33:37;100261.91;;;1.79;78.59
23016;BME280;11674;52.428;13.584;2023-01-19T10:38:45;100266.91;;;1.99;78.50
23016;BME280;11674;52.428;13.584;2023-01-19T10:44:03;100250.75;;;2.14;78.35
23016;BME280;11674;52.428;13.584;2023-01-19T10:54:33;100260.28;;;2.11;78.96
23016;BME280;11674;52.428;13.584;2023-01-19T10:59:49;100266.06;;;2.15;79.02
23016;BME280;11674;52.428;13.584;2023-01-19T11:04:58;100255.03;;;2.26;78.88
23016;BME280;11674;52.428;13.584;2023-01-19T11:10:15;100262.25;;;2.49;78.75
23016;BME280;11674;52.428;13.584;2023-01-19T11:15:41;100253.50;;;2.68;78.66
23016;BME280;11674;52.428;13.584;2023-01-19T11:20:52;100247.16;;;2.84;78.64
23016;BME280;11674;52.428;13.584;2023-01-19T11:26:00;100236.19;;;2.84;78.73
23016;BME280;11674;52.428;13.584;2023-01-19T11:36:32;100230.81;;;3.11;78.87
23016;BME280;11674;52.428;13.584;2023-01-19T11:41:40;100222.72;;;3.21;78.92
23016;BME280;11674;52.428;13.584;2023-01-19T11:46:52;100227.16;;;3.27;78.85
23016;BME280;11674;52.428;13.584;2023-01-19T11:57:18;100227.06;;;3.43;79.28
23016;BME280;11674;52.428;13.584;2023-01-19T12:02:29;100223.34;;;3.54;79.26
23016;BME280;11674;52.428;13.584;2023-01-19T12:07:38;100218.19;;;3.58;79.24
23016;BME280;11674;52.428;13.584;2023-01-19T12:12:46;100224.81;;;3.62;79.06
23016;BME280;11674;52.428;13.584;2023-01-19T12:17:56;100212.53;;;3.69;78.77
23016;BME280;11674;52.428;13.584;2023-01-19T12:28:41;100209.78;;;3.96;78.68
23016;BME280;11674;52.428;13.584;2023-01-19T12:33:49;100226.28;;;4.01;78.52
23016;BME280;11674;52.428;13.584;2023-01-19T12:54:31;100240.53;;;4.34;78.29
23016;BME280;11674;52.428;13.584;2023-01-19T12:59:38;100241.78;;;5.71;75.06
23016;BME280;11674;52.428;13.584;2023-01-19T13:21:41;100248.69;;;8.78;70.98
23016;BME280;11674;52.428;13.584;2023-01-19T13:31:57;100252.53;;;8.82;70.94
23016;BME280;11674;52.428;13.584;2023-01-19T13:37:14;100258.06;;;8.53;70.52
23016;BME280;11674;52.428;13.584;2023-01-19T13:42:31;100254.47;;;8.14;71.23
23016;BME280;11674;52.428;13.584;2023-01-19T13:47:45;100260.38;;;7.98;71.46
23016;BME280;11674;52.428;13.584;2023-01-19T13:52:54;100265.25;;;6.99;71.84
23016;BME280;11674;52.428;13.584;2023-01-19T13:58:01;100273.81;;;5.97;74.24
23016;BME280;11674;52.428;13.584;2023-01-19T14:08:15;100268.41;;;4.48;76.70
23016;BME280;11674;52.428;13.584;2023-01-19T14:13:25;100282.88;;;4.07;77.39
23016;BME280;11674;52.428;13.584;2023-01-19T14:18:33;100285.97;;;3.89;78.08
23016;BME280;11674;52.428;13.584;2023-01-19T14:23:52;100293.75;;;3.75;78.46
23016;BME280;11674;52.428;13.584;2023-01-19T14:29:27;100291.19;;;3.64;78.76
23016;BME280;11674;52.428;13.584;2023-01-19T14:34:39;100287.19;;;3.50;78.66
23016;BME280;11674;52.428;13.584;2023-01-19T14:45:29;100291.28;;;3.26;78.95
23016;BME280;11674;52.428;13.584;2023-01-19T14:50:40;100301.34;;;3.20;79.08
23016;BME280;11674;52.428;13.584;2023-01-19T14:55:51;100296.88;;;3.14;79.14
23016;BME280;11674;52.428;13.584;2023-01-19T15:01:00;100299.72;;;3.03;78.96
23016;BME280;11674;52.428;13.584;2023-01-19T15:06:18;100302.91;;;2.95;78.99
23016;BME280;11674;52.428;13.584;2023-01-19T15:11:30;100307.16;;;2.86;79.02
23016;BME280;11674;52.428;13.584;2023-01-19T15:16:38;100314.72;;;2.79;79.01
23016;BME280;11674;52.428;13.584;2023-01-19T15:21:45;100322.00;;;2.73;79.08
23016;BME280;11674;52.428;13.584;2023-01-19T15:26:52;100320.78;;;2.64;79.12
23016;BME280;11674;52.428;13.584;2023-01-19T15:31:59;100322.59;;;2.59;79.03
23016;BME280;11674;52.428;13.584;2023-01-19T15:37:06;100324.09;;;2.50;79.06
23016;BME280;11674;52.428;13.584;2023-01-19T15:42:14;100324.00;;;2.45;79.05
23016;BME280;11674;52.428;13.584;2023-01-19T15:47:20;100325.00;;;2.39;79.16
23016;BME280;11674;52.428;13.584;2023-01-19T15:52:27;100329.34;;;2.35;79.32
23016;BME280;11674;52.428;13.584;2023-01-19T15:57:34;100327.56;;;2.29;79.20
23016;BME280;11674;52.428;13.584;2023-01-19T16:02:41;100330.56;;;2.27;79.25
23016;BME280;11674;52.428;13.584;2023-01-19T16:07:48;100330.25;;;2.24;79.26
23016;BME280;11674;52.428;13.584;2023-01-19T16:12:55;100332.72;;;2.25;79.32
23016;BME280;11674;52.428;13.584;2023-01-19T16:18:03;100329.72;;;2.27;79.52
23016;BME280;11674;52.428;13.584;2023-01-19T16:23:11;100333.88;;;2.29;79.48
23016;BME280;11674;52.428;13.584;2023-01-19T16:28:18;100336.38;;;2.31;79.46
23016;BME280;11674;52.428;13.584;2023-01-19T16:33:25;100339.59;;;2.28;79.46
23016;BME280;11674;52.428;13.584;2023-01-19T16:38:32;100343.94;;;2.24;79.53
23016;BME280;11674;52.428;13.584;2023-01-19T16:43:39;100342.41;;;2.16;79.33
23016;BME280;11674;52.428;13.584;2023-01-19T16:48:46;100342.56;;;2.10;79.34
23016;BME280;11674;52.428;13.584;2023-01-19T16:53:53;100340.81;;;2.04;79.41
23016;BME280;11674;52.428;13.584;2023-01-19T16:59:00;100336.66;;;2.01;79.46
23016;BME280;11674;52.428;13.584;2023-01-19T17:04:07;100338.31;;;2.02;79.57
23016;BME280;11674;52.428;13.584;2023-01-19T17:09:14;100344.13;;;2.06;79.57
23016;BME280;11674;52.428;13.584;2023-01-19T17:14:21;100349.22;;;2.14;79.49
23016;BME280;11674;52.428;13.584;2023-01-19T17:19:28;100350.97;;;2.20;79.55
23016;BME280;11674;52.428;13.584;2023-01-19T17:24:35;100355.44;;;2.26;79.76
23016;BME280;11674;52.428;13.584;2023-01-19T17:29:42;100346.47;;;2.30;79.70
23016;BME280;11674;52.428;13.584;2023-01-19T17:34:49;100350.63;;;2.33;79.75
23016;BME280;11674;52.428;13.584;2023-01-19T17:39:56;100359.34;;;2.30;79.85
23016;BME280;11674;52.428;13.584;2023-01-19T17:45:03;100359.06;;;2.31;79.93
23016;BME280;11674;52.428;13.584;2023-01-19T17:50:10;100360.25;;;2.35;80.11
23016;BME280;11674;52.428;13.584;2023-01-19T17:55:17;100372.03;;;2.36;79.75
23016;BME280;11674;52.428;13.584;2023-01-19T18:00:24;100378.59;;;2.35;79.84
23016;BME280;11674;52.428;13.584;2023-01-19T18:05:31;100381.56;;;2.33;79.96
23016;BME280;11674;52.428;13.584;2023-01-19T18:10:38;100384.31;;;2.33;79.69
23016;BME280;11674;52.428;13.584;2023-01-19T18:15:45;100383.97;;;2.30;79.79
23016;BME280;11674;52.428;13.584;2023-01-19T18:20:52;100396.38;;;2.21;79.67
23016;BME280;11674;52.428;13.584;2023-01-19T18:26:04;100392.38;;;2.12;79.50
23016;BME280;11674;52.428;13.584;2023-01-19T18:31:14;100398.06;;;2.10;79.69
23016;BME280;11674;52.428;13.584;2023-01-19T18:36:21;100392.88;;;2.09;79.72
23016;BME280;11674;52.428;13.584;2023-01-19T18:41:29;100401.19;;;2.14;79.51
23016;BME280;11674;52.428;13.584;2023-01-19T18:46:36;100400.44;;;2.18;79.52
23016;BME280;11674;52.428;13.584;2023-01-19T18:51:43;100406.34;;;2.27;79.88
23016;BME280;11674;52.428;13.584;2023-01-19T18:56:50;100405.69;;;2.36;79.86
23016;BME280;11674;52.428;13.584;2023-01-19T19:01:57;100424.22;;;2.46;79.67
23016;BME280;11674;52.428;13.584;2023-01-19T19:07:04;100422.63;;;2.50;79.71
23016;BME280;11674;52.428;13.584;2023-01-19T19:12:11;100427.03;;;2.51;79.92
23016;BME280;11674;52.428;13.584;2023-01-19T19:17:18;100439.31;;;2.48;79.98
23016;BME280;11674;52.428;13.584;2023-01-19T19:22:25;100438.31;;;2.54;80.17
23016;BME280;11674;52.428;13.584;2023-01-19T19:27:32;100441.97;;;2.60;80.28
23016;BME280;11674;52.428;13.584;2023-01-19T19:32:39;100442.88;;;2.65;80.09
23016;BME280;11674;52.428;13.584;2023-01-19T19:37:47;100456.34;;;2.67;80.22
23016;BME280;11674;52.428;13.584;2023-01-19T19:42:54;100466.44;;;2.66;80.35
23016;BME280;11674;52.428;13.584;2023-01-19T19:48:01;100462.16;;;2.70;80.52
23016;BME280;11674;52.428;13.584;2023-01-19T19:53:08;100466.63;;;2.76;80.53
23016;BME280;11674;52.428;13.584;2023-01-19T19:58:15;100469.69;;;2.80;80.31
23016;BME280;11674;52.428;13.584;2023-01-19T20:03:26;100477.75;;;2.86;80.29
23016;BME280;11674;52.428;13.584;2023-01-19T20:08:33;100475.13;;;2.91;80.40
23016;BME280;11674;52.428;13.584;2023-01-19T20:13:42;100483.66;;;2.95;80.45
23016;BME280;11674;52.428;13.584;2023-01-19T20:18:51;100486.47;;;3.00;80.42
23016;BME280;11674;52.428;13.584;2023-01-19T20:24:04;100493.63;;;3.01;80.37
23016;BME280;11674;52.428;13.584;2023-01-19T20:29:11;100501.06;;;3.05;80.28
23016;BME280;11674;52.428;13.584;2023-01-19T20:34:20;100504.66;;;3.06;80.46
23016;BME280;11674;52.428;13.584;2023-01-19T20:39:27;100514.28;;;3.08;80.33
23016;BME280;11674;52.428;13.584;2023-01-19T20:44:34;100513.97;;;3.05;80.27
23016;BME280;11674;52.428;13.584;2023-01-19T20:49:41;100526.47;;;3.01;80.44
23016;BME280;11674;52.428;13.584;2023-01-19T20:54:48;100516.94;;;3.03;80.53
23016;BME280;11674;52.428;13.584;2023-01-19T20:59:55;100515.03;;;3.04;80.54
23016;BME280;11674;52.428;13.584;2023-01-19T21:05:02;100516.09;;;3.03;80.64
23016;BME280;11674;52.428;13.584;2023-01-19T21:10:09;100528.00;;;3.08;80.63
23016;BME280;11674;52.428;13.584;2023-01-19T21:15:16;100528.09;;;3.13;80.55
23016;BME280;11674;52.428;13.584;2023-01-19T21:20:23;100541.25;;;3.16;80.47
23016;BME280;11674;52.428;13.584;2023-01-19T21:25:31;100551.50;;;3.21;80.39
23016;BME280;11674;52.428;13.584;2023-01-19T21:30:38;100554.56;;;3.24;80.46
23016;BME280;11674;52.428;13.584;2023-01-19T21:35:53;100562.88;;;3.29;80.51
23016;BME280;11674;52.428;13.584;2023-01-19T21:41:07;100569.16;;;3.30;80.39
23016;BME280;11674;52.428;13.584;2023-01-19T21:46:20;100574.09;;;3.28;80.35
23016;BME280;11674;52.428;13.584;2023-01-19T21:51:29;100585.03;;;3.28;80.52
23016;BME280;11674;52.428;13.584;2023-01-19T21:56:35;100596.34;;;3.31;80.73
23016;BME280;11674;52.428;13.584;2023-01-19T22:01:43;100593.59;;;3.31;80.54
23016;BME280;11674;52.428;13.584;2023-01-19T22:06:50;100597.28;;;3.37;80.65
23016;BME280;11674;52.428;13.584;2023-01-19T22:11:57;100609.66;;;3.39;80.69
23016;BME280;11674;52.428;13.584;2023-01-19T22:17:04;100615.78;;;3.46;80.59
23016;BME280;11674;52.428;13.584;2023-01-19T22:22:11;100615.03;;;3.51;80.51
23016;BME280;11674;52.428;13.584;2023-01-19T22:27:18;100621.59;;;3.50;80.31
23016;BME280;11674;52.428;13.584;2023-01-19T22:32:25;100632.25;;;3.46;80.48
23016;BME280;11674;52.428;13.584;2023-01-19T22:37:36;100634.22;;;3.51;80.38
23016;BME280;11674;52.428;13.584;2023-01-19T22:42:46;100641.97;;;3.54;80.56
23016;BME280;11674;52.428;13.584;2023-01-19T22:47:53;100644.81;;;3.59;80.46
23016;BME280;11674;52.428;13.584;2023-01-19T22:53:00;100638.31;;;3.65;80.45
23016;BME280;11674;52.428;13.584;2023-01-19T22:58:07;100641.91;;;3.65;80.41
23016;BME280;11674;52.428;13.584;2023-01-19T23:03:14;100645.97;;;3.63;80.40
23016;BME280;11674;52.428;13.584;2023-01-19T23:08:21;100656.09;;;3.62;80.45
23016;BME280;11674;52.428;13.584;2023-01-19T23:13:28;100650.03;;;3.60;80.36
23016;BME280;11674;52.428;13.584;2023-01-19T23:18:35;100659.78;;;3.68;80.65
23016;BME280;11674;52.428;13.584;2023-01-19T23:23:43;100654.72;;;3.76;80.47
23016;BME280;11674;52.428;13.584;2023-01-19T23:28:55;100667.34;;;3.77;80.40
23016;BME280;11674;52.428;13.584;2023-01-19T23:34:05;100671.25;;;3.81;80.41
23016;BME280;11674;52.428;13.584;2023-01-19T23:39:15;100671.06;;;3.88;80.50
23016;BME280;11674;52.428;13.584;2023-01-19T23:44:22;100678.72;;;3.86;80.31
23016;BME280;11674;52.428;13.584;2023-01-19T23:49:29;100672.56;;;3.79;80.35
23016;BME280;11674;52.428;13.584;2023-01-19T23:54:36;100670.81;;;3.73;80.35
23016;BME280;11674;52.428;13.584;2023-01-19T23:59:43;100675.47;;;3.72;80.58
